createdAt,value
2019-03-25T00:00:54.013Z,57.20
2019-03-25T00:03:24.287Z,54.80
2019-03-25T00:05:54.606Z,54.00
2019-03-25T00:08:24.893Z,57.40
2019-03-25T00:10:55.319Z,53.20
2019-03-25T00:13:25.783Z,51.20
2019-03-25T00:15:56.633Z,54.20
2019-03-25T00:18:27.040Z,50.80
2019-03-25T00:20:57.307Z,54.20
2019-03-25T00:23:27.564Z,55.40
2019-03-25T00:25:57.794Z,57.40
2019-03-25T00:28:28.146Z,57.80
2019-03-25T00:30:58.497Z,53.80
2019-03-25T00:33:28.742Z,49.60
2019-03-25T00:35:59.399Z,52.80
2019-03-25T00:38:30.981Z,52.20
2019-03-25T00:41:01.660Z,58.40
2019-03-25T00:43:32.268Z,53.60
2019-03-25T00:46:02.737Z,53.40
2019-03-25T00:48:33.122Z,59.40
2019-03-25T00:51:03.935Z,54.00
2019-03-25T00:53:34.523Z,47.40
2019-03-25T00:56:04.920Z,54.60
2019-03-25T00:58:35.466Z,52.00
2019-03-25T01:01:06.086Z,57.80
2019-03-25T01:03:36.723Z,53.00
2019-03-25T01:06:07.269Z,57.20
2019-03-25T01:08:37.624Z,52.80
2019-03-25T01:11:08.042Z,56.80
2019-03-25T01:13:39.694Z,52.60
2019-03-25T01:16:09.878Z,45.00
2019-03-25T01:18:40.293Z,57.20
2019-03-25T01:21:11.070Z,60.40
2019-03-25T01:23:41.725Z,49.60
2019-03-25T01:26:12.277Z,48.00
2019-03-25T01:28:43.082Z,54.20
2019-03-25T01:31:13.579Z,53.20
2019-03-25T01:33:43.878Z,55.00
2019-03-25T01:36:14.126Z,55.60
2019-03-25T01:38:44.467Z,56.40
2019-03-25T01:41:14.781Z,53.00
2019-03-25T01:43:44.962Z,48.80
2019-03-25T01:46:15.367Z,55.60
2019-03-25T01:48:45.592Z,56.60
2019-03-25T01:51:16.142Z,50.20
2019-03-25T01:53:46.867Z,55.00
2019-03-25T01:56:17.163Z,48.60
2019-03-25T01:58:47.621Z,53.00
2019-03-25T02:01:17.854Z,55.20
2019-03-25T02:03:48.619Z,60.20
2019-03-25T02:06:18.902Z,56.00
2019-03-25T02:08:49.291Z,59.80
2019-03-25T02:11:22.125Z,57.40
2019-03-25T02:13:51.876Z,52.60
2019-03-25T02:16:22.137Z,56.40
2019-03-25T02:18:52.469Z,61.20
2019-03-25T02:21:22.784Z,57.00
2019-03-25T02:23:53.085Z,58.00
2019-03-25T02:26:23.423Z,55.60
2019-03-25T02:28:53.838Z,55.40
2019-03-25T02:31:24.358Z,56.80
2019-03-25T02:33:55.295Z,59.00
2019-03-25T02:36:25.639Z,56.80
2019-03-25T02:38:56.237Z,56.40
2019-03-25T02:41:26.691Z,58.40
2019-03-25T02:43:57.324Z,51.00
2019-03-25T02:46:27.528Z,52.20
2019-03-25T02:48:57.961Z,49.20
2019-03-25T02:51:29.230Z,51.60
2019-03-25T02:53:59.742Z,52.80
2019-03-25T02:56:30.045Z,48.80
2019-03-25T02:59:00.636Z,50.60
2019-03-25T03:01:30.985Z,50.80
2019-03-25T03:04:01.804Z,47.80
2019-03-25T03:06:32.319Z,50.20
2019-03-25T03:09:02.853Z,46.40
2019-03-25T03:11:33.216Z,48.40
2019-03-25T03:14:03.867Z,48.60
2019-03-25T03:16:35.245Z,46.60
2019-03-25T03:19:07.256Z,51.40
2019-03-25T03:21:37.607Z,47.60
2019-03-25T03:24:08.141Z,51.00
2019-03-25T03:26:38.774Z,48.20
2019-03-25T03:29:09.190Z,51.20
2019-03-25T03:31:39.528Z,52.00
2019-03-25T03:34:09.856Z,54.00
2019-03-25T03:36:40.300Z,55.00
2019-03-25T03:39:10.587Z,49.60
2019-03-25T03:41:41.093Z,46.20
2019-03-25T03:44:11.935Z,54.60
2019-03-25T03:46:43.670Z,43.40
2019-03-25T03:49:14.899Z,41.20
2019-03-25T03:51:45.223Z,52.20
2019-03-25T03:54:16.531Z,50.20
2019-03-25T03:56:47.151Z,51.80
2019-03-25T03:59:17.519Z,52.20
2019-03-25T04:01:48.049Z,53.00
2019-03-25T04:04:18.523Z,51.80
2019-03-25T04:06:48.761Z,50.60
2019-03-25T04:09:19.425Z,51.20
2019-03-25T04:11:49.727Z,45.40
2019-03-25T04:14:20.277Z,50.20
2019-03-25T04:16:51.085Z,49.40
2019-03-25T04:19:21.491Z,55.80
2019-03-25T04:21:51.854Z,52.20
2019-03-25T04:24:22.732Z,54.00
2019-03-25T04:26:53.266Z,51.80
2019-03-25T04:29:24.086Z,49.20
2019-03-25T04:31:54.595Z,54.80
2019-03-25T04:34:25.048Z,52.40
2019-03-25T04:36:55.366Z,51.00
2019-03-25T04:39:25.956Z,48.00
2019-03-25T04:41:56.356Z,51.40
2019-03-25T04:44:26.824Z,52.20
2019-03-25T04:46:57.127Z,47.80
2019-03-25T04:49:27.577Z,48.60
2019-03-25T04:51:58.254Z,49.40
2019-03-25T04:54:29.447Z,49.20
2019-03-25T04:56:59.975Z,44.00
2019-03-25T04:59:30.248Z,48.20
2019-03-25T05:02:00.478Z,34.80
2019-03-25T05:04:30.764Z,40.80
2019-03-25T05:07:01.451Z,42.20
2019-03-25T05:09:31.963Z,46.00
2019-03-25T05:12:02.649Z,48.40
2019-03-25T05:14:33.051Z,48.80
2019-03-25T05:17:03.650Z,44.80
2019-03-25T05:19:34.330Z,41.80
2019-03-25T05:22:05.009Z,41.40
2019-03-25T05:24:36.141Z,42.80
2019-03-25T05:27:07.022Z,40.80
2019-03-25T05:29:37.320Z,45.20
2019-03-25T05:32:07.847Z,41.60
2019-03-25T05:34:38.446Z,45.40
2019-03-25T05:37:08.975Z,41.60
2019-03-25T05:39:39.237Z,39.80
2019-03-25T05:42:09.832Z,37.20
2019-03-25T05:44:40.354Z,37.00
2019-03-25T05:47:10.687Z,36.80
2019-03-25T05:49:41.123Z,35.60
2019-03-25T05:52:11.775Z,33.40
2019-03-25T05:54:42.653Z,35.20
2019-03-25T05:57:13.047Z,33.20
2019-03-25T05:59:43.520Z,33.20
2019-03-25T06:02:13.834Z,32.80
2019-03-25T06:04:44.382Z,33.20
2019-03-25T06:07:14.881Z,34.60
2019-03-25T06:09:45.274Z,35.80
2019-03-25T06:12:15.543Z,36.20
2019-03-25T06:14:46.949Z,34.80
2019-03-25T06:17:17.687Z,32.80
2019-03-25T06:19:47.988Z,30.40
2019-03-25T06:22:18.256Z,31.00
2019-03-25T06:24:48.614Z,31.60
2019-03-25T06:27:19.114Z,32.00
2019-03-25T06:29:49.522Z,31.00
2019-03-25T06:32:19.947Z,29.80
2019-03-25T06:34:50.252Z,30.20
2019-03-25T06:37:20.643Z,29.80
2019-03-25T06:39:50.891Z,27.40
2019-03-25T06:42:21.393Z,24.80
2019-03-25T06:44:52.010Z,29.00
2019-03-25T06:47:24.351Z,28.00
2019-03-25T06:49:54.991Z,28.60
2019-03-25T06:52:25.444Z,27.80
2019-03-25T06:54:55.796Z,27.00
2019-03-25T06:57:26.544Z,23.20
2019-03-25T06:59:57.125Z,24.20
2019-03-25T07:02:27.944Z,26.60
2019-03-25T07:04:58.225Z,21.80
2019-03-25T07:07:28.758Z,24.40
2019-03-25T07:09:59.312Z,26.00
2019-03-25T07:12:29.922Z,27.60
2019-03-25T07:15:00.751Z,24.00
2019-03-25T07:17:31.175Z,25.00
2019-03-25T07:20:01.773Z,24.80
2019-03-25T07:22:32.188Z,25.40
2019-03-25T07:25:02.530Z,23.20
2019-03-25T07:27:36.999Z,23.80
2019-03-25T07:30:05.715Z,24.20
2019-03-25T07:32:37.959Z,24.40
2019-03-25T07:35:08.769Z,26.20
2019-03-25T07:37:39.477Z,25.00
2019-03-25T07:40:11.637Z,23.20
2019-03-25T07:42:43.157Z,23.80
2019-03-25T07:45:14.221Z,23.20
2019-03-25T07:47:44.660Z,23.60
2019-03-25T07:50:15.239Z,22.80
2019-03-25T07:52:45.559Z,23.00
2019-03-25T07:55:16.248Z,23.40
2019-03-25T07:57:48.622Z,27.00
2019-03-25T08:00:19.368Z,26.20
2019-03-25T08:02:50.113Z,25.60
2019-03-25T08:05:20.722Z,24.00
2019-03-25T08:07:51.658Z,21.40
2019-03-25T08:10:35.387Z,25.00
2019-03-25T08:13:05.915Z,23.60
2019-03-25T08:15:37.363Z,25.40
2019-03-25T08:18:08.891Z,26.80
2019-03-25T08:20:39.364Z,24.00
2019-03-25T08:23:09.998Z,23.00
2019-03-25T08:25:40.390Z,24.60
2019-03-25T08:28:10.910Z,22.40
2019-03-25T08:30:41.083Z,24.40
2019-03-25T08:33:11.538Z,24.00
2019-03-25T08:35:41.854Z,24.00
2019-03-25T08:38:12.413Z,23.00
2019-03-25T08:40:42.837Z,23.00
2019-03-25T08:43:13.447Z,24.00
2019-03-25T08:45:44.256Z,25.20
2019-03-25T08:48:14.790Z,23.60
2019-03-25T08:50:45.370Z,22.40
2019-03-25T08:53:16.227Z,25.60
2019-03-25T08:55:46.504Z,22.00
2019-03-25T08:58:16.977Z,24.60
2019-03-25T09:00:47.364Z,22.80
2019-03-25T09:03:18.014Z,23.40
2019-03-25T09:05:48.693Z,26.00
2019-03-25T09:08:19.140Z,24.00
2019-03-25T09:10:49.477Z,25.40
2019-03-25T09:13:19.916Z,25.00
2019-03-25T09:15:51.034Z,24.60
2019-03-25T09:18:21.412Z,25.80
2019-03-25T09:20:52.003Z,23.40
2019-03-25T09:23:22.850Z,24.20
2019-03-25T09:25:53.706Z,26.00
2019-03-25T09:28:24.749Z,26.00
2019-03-25T09:31:23.156Z,27.60
2019-03-25T09:33:53.711Z,25.40
2019-03-25T09:36:24.195Z,24.40
2019-03-25T09:38:55.106Z,25.60
2019-03-25T09:41:25.800Z,26.40
2019-03-25T09:43:55.962Z,25.60
2019-03-25T09:46:27.105Z,26.40
2019-03-25T09:48:57.658Z,26.00
2019-03-25T09:51:28.055Z,27.00
2019-03-25T09:53:58.459Z,28.00
2019-03-25T09:56:28.794Z,26.20
2019-03-25T09:58:59.285Z,25.60
2019-03-25T10:01:30.193Z,23.80
2019-03-25T10:04:00.486Z,23.00
2019-03-25T10:06:30.948Z,25.00
2019-03-25T10:09:01.504Z,26.00
2019-03-25T10:11:37.175Z,26.20
2019-03-25T10:14:08.068Z,27.80
2019-03-25T10:16:39.199Z,28.00
2019-03-25T10:19:10.360Z,26.80
2019-03-25T10:21:41.234Z,27.60
2019-03-25T10:24:11.605Z,26.20
2019-03-25T10:26:42.323Z,27.60
2019-03-25T10:29:12.887Z,25.40
2019-03-25T10:31:43.426Z,26.00
2019-03-25T10:34:14.998Z,28.00
2019-03-25T10:36:45.670Z,26.00
2019-03-25T10:39:17.085Z,27.00
2019-03-25T10:41:47.698Z,26.40
2019-03-25T10:44:17.870Z,26.00
2019-03-25T10:46:48.520Z,26.60
2019-03-25T10:49:19.012Z,26.60
2019-03-25T10:51:50.178Z,26.80
2019-03-25T10:54:20.808Z,25.60
2019-03-25T10:56:51.384Z,24.00
2019-03-25T10:59:21.663Z,27.00
2019-03-25T11:01:52.284Z,22.80
2019-03-25T11:04:23.535Z,26.00
2019-03-25T11:06:54.199Z,26.20
2019-03-25T11:09:24.864Z,26.00
2019-03-25T11:11:55.713Z,26.20
2019-03-25T11:14:26.103Z,26.20
2019-03-25T11:16:56.578Z,25.80
2019-03-25T11:19:27.132Z,28.00
2019-03-25T11:21:58.801Z,27.00
2019-03-25T11:24:29.093Z,27.20
2019-03-25T11:26:59.630Z,26.60
2019-03-25T11:29:30.120Z,27.00
2019-03-25T11:32:00.668Z,27.40
2019-03-25T11:34:31.344Z,27.80
2019-03-25T11:37:02.565Z,26.00
2019-03-25T11:39:32.952Z,24.80
2019-03-25T11:42:03.589Z,27.40
2019-03-25T11:44:34.359Z,25.40
2019-03-25T11:47:04.871Z,27.20
2019-03-25T11:49:35.856Z,25.60
2019-03-25T11:52:14.102Z,27.00
2019-03-25T11:54:44.612Z,23.40
2019-03-25T11:57:15.073Z,27.40
2019-03-25T11:59:45.404Z,28.00
2019-03-25T12:02:17.700Z,25.00
2019-03-25T12:04:47.696Z,28.20
2019-03-25T12:07:18.537Z,27.80
2019-03-25T12:09:48.896Z,26.00
2019-03-25T12:12:19.348Z,27.40
2019-03-25T12:14:50.858Z,26.60
2019-03-25T12:17:21.291Z,28.80
2019-03-25T12:19:51.715Z,31.00
2019-03-25T12:22:22.120Z,30.20
2019-03-25T12:24:52.849Z,30.20
2019-03-25T12:27:23.437Z,30.60
2019-03-25T12:29:53.974Z,32.60
2019-03-25T12:32:24.158Z,30.60
2019-03-25T12:34:54.479Z,29.00
2019-03-25T12:37:28.798Z,29.80
2019-03-25T12:39:59.334Z,31.80
2019-03-25T12:42:29.508Z,30.40
2019-03-25T12:44:59.772Z,33.60
2019-03-25T12:47:29.933Z,34.20
2019-03-25T12:50:00.439Z,44.20
2019-03-25T12:52:30.809Z,44.60
2019-03-25T12:55:01.422Z,48.40
2019-03-25T12:57:31.777Z,48.40
2019-03-25T13:00:01.988Z,41.80
2019-03-25T13:02:32.373Z,36.00
2019-03-25T13:05:02.614Z,35.20
2019-03-25T13:07:33.501Z,35.60
2019-03-25T13:10:03.703Z,35.00
2019-03-25T13:12:34.048Z,34.00
2019-03-25T13:15:04.763Z,38.00
2019-03-25T13:17:35.598Z,37.40
2019-03-25T13:20:06.181Z,34.80
2019-03-25T13:22:36.850Z,35.20
2019-03-25T13:25:07.233Z,35.00
2019-03-25T13:27:38.520Z,33.60
2019-03-25T13:30:09.078Z,33.80
2019-03-25T13:32:39.217Z,33.60
2019-03-25T13:35:09.539Z,33.60
2019-03-25T13:37:40.586Z,34.00
2019-03-25T13:40:11.047Z,32.00
2019-03-25T13:42:41.535Z,34.40
2019-03-25T13:45:12.215Z,34.60
2019-03-25T13:47:42.742Z,35.60
2019-03-25T13:50:13.061Z,37.00
2019-03-25T13:52:43.590Z,36.00
2019-03-25T13:55:13.969Z,36.00
2019-03-25T13:57:44.398Z,35.00
2019-03-25T14:00:14.891Z,38.20
2019-03-25T14:02:45.477Z,38.20
2019-03-25T14:05:15.741Z,40.20
2019-03-25T14:07:46.664Z,44.00
2019-03-25T14:10:17.186Z,46.20
2019-03-25T14:12:47.586Z,42.00
2019-03-25T14:15:17.728Z,45.20
2019-03-25T14:17:48.635Z,49.60
2019-03-25T14:20:19.101Z,44.60
2019-03-25T14:22:50.015Z,51.60
2019-03-25T14:25:20.211Z,49.40
2019-03-25T14:27:50.685Z,51.20
2019-03-25T14:30:21.096Z,45.40
2019-03-25T14:32:51.422Z,49.60
2019-03-25T14:35:21.728Z,48.40
2019-03-25T14:37:53.146Z,50.40
2019-03-25T14:40:25.492Z,46.40
2019-03-25T14:42:55.653Z,50.60
2019-03-25T14:45:26.700Z,52.80
2019-03-25T14:47:57.362Z,48.60
2019-03-25T14:50:28.215Z,50.80
2019-03-25T14:52:58.744Z,46.80
2019-03-25T14:55:29.080Z,47.40
2019-03-25T14:57:59.298Z,49.60
2019-03-25T15:00:29.563Z,43.00
2019-03-25T15:02:59.978Z,42.60
2019-03-25T15:05:30.286Z,42.00
2019-03-25T15:08:01.155Z,43.60
2019-03-25T15:10:31.650Z,48.00
2019-03-25T15:13:01.831Z,49.00
2019-03-25T15:15:32.413Z,49.00
2019-03-25T15:18:03.330Z,49.80
2019-03-25T15:20:34.470Z,52.60
2019-03-25T15:23:04.686Z,51.60
2019-03-25T15:25:35.032Z,49.80
2019-03-25T15:28:05.336Z,55.60
2019-03-25T15:30:36.473Z,55.80
2019-03-25T15:33:06.980Z,54.40
2019-03-25T15:35:37.288Z,59.40
2019-03-25T15:38:07.490Z,61.40
2019-03-25T15:40:37.997Z,56.80
2019-03-25T15:43:08.462Z,62.80
2019-03-25T15:45:38.688Z,58.40
2019-03-25T15:48:09.256Z,57.20
2019-03-25T15:50:39.731Z,59.00
2019-03-25T15:53:10.329Z,58.40
2019-03-25T15:55:41.126Z,58.00
2019-03-25T15:58:11.357Z,58.20
2019-03-25T16:00:47.506Z,57.40
2019-03-25T16:03:14.081Z,57.00
2019-03-25T16:05:44.437Z,50.60
2019-03-25T16:08:14.879Z,52.40
2019-03-25T16:10:45.249Z,49.00
2019-03-25T16:13:15.751Z,48.80
2019-03-25T16:15:46.164Z,46.60
2019-03-25T16:18:35.604Z,50.20
2019-03-25T16:21:05.866Z,45.40
2019-03-25T16:23:36.213Z,46.20
2019-03-25T16:26:06.539Z,41.20
2019-03-25T16:28:36.674Z,46.20
2019-03-25T16:31:08.421Z,45.40
2019-03-25T16:33:38.803Z,43.80
2019-03-25T16:36:09.138Z,45.60
2019-03-25T16:38:39.479Z,44.00
2019-03-25T16:41:10.145Z,41.20
2019-03-25T16:43:40.303Z,40.00
2019-03-25T16:46:10.674Z,40.20
2019-03-25T16:48:41.043Z,40.40
2019-03-25T16:51:11.376Z,40.00
2019-03-25T16:53:42.337Z,43.20
2019-03-25T16:56:12.890Z,44.00
2019-03-25T16:58:43.421Z,38.00
2019-03-25T17:01:14.313Z,41.20
2019-03-25T17:03:44.710Z,43.20
2019-03-25T17:06:15.067Z,40.80
2019-03-25T17:08:45.741Z,38.80
2019-03-25T17:11:16.074Z,40.00
2019-03-25T17:13:46.257Z,40.40
2019-03-25T17:16:16.999Z,33.20
2019-03-25T17:18:47.828Z,38.00
2019-03-25T17:21:18.637Z,38.00
2019-03-25T17:23:49.190Z,39.00
2019-03-25T17:26:19.796Z,38.00
2019-03-25T17:28:50.151Z,37.00
2019-03-25T17:31:21.333Z,35.40
2019-03-25T17:33:51.680Z,36.40
2019-03-25T17:36:22.154Z,37.80
2019-03-25T17:38:52.951Z,37.80
2019-03-25T17:41:23.805Z,37.00
2019-03-25T17:43:54.381Z,35.80
2019-03-25T17:46:25.102Z,36.80
2019-03-25T17:48:55.915Z,38.00
2019-03-25T17:51:26.769Z,36.00
2019-03-25T17:53:58.037Z,37.20
2019-03-25T17:56:28.784Z,37.40
2019-03-25T17:58:59.873Z,36.00
2019-03-25T18:01:35.870Z,36.60
2019-03-25T18:04:06.414Z,37.40
2019-03-25T18:06:37.925Z,36.20
2019-03-25T18:09:11.068Z,36.20
2019-03-25T18:11:41.311Z,37.20
2019-03-25T18:14:11.942Z,36.80
2019-03-25T18:16:42.203Z,37.00
2019-03-25T18:19:12.693Z,37.60
2019-03-25T18:21:43.046Z,35.20
2019-03-25T18:24:13.662Z,35.60
2019-03-25T18:26:44.030Z,37.60
2019-03-25T18:29:16.907Z,35.80
2019-03-25T18:31:46.295Z,36.20
2019-03-25T18:34:16.870Z,37.40
2019-03-25T18:36:47.361Z,34.20
2019-03-25T18:39:17.597Z,36.60
2019-03-25T18:41:48.056Z,36.20
2019-03-25T18:44:18.646Z,37.20
2019-03-25T18:46:49.233Z,37.00
2019-03-25T18:49:19.757Z,34.00
2019-03-25T18:51:50.123Z,34.20
2019-03-25T18:54:20.487Z,34.00
2019-03-25T18:56:50.942Z,36.80
2019-03-25T18:59:21.507Z,36.20
2019-03-25T19:01:54.724Z,35.00
2019-03-25T19:04:27.147Z,36.20
2019-03-25T19:06:56.593Z,34.00
2019-03-25T19:09:27.102Z,34.20
2019-03-25T19:11:57.626Z,34.00
2019-03-25T19:14:32.180Z,35.60
2019-03-25T19:17:05.175Z,34.80
2019-03-25T19:19:34.711Z,33.80
2019-03-25T19:22:05.545Z,35.00
2019-03-25T19:24:36.133Z,36.00
2019-03-25T19:27:06.623Z,34.60
2019-03-25T19:29:37.050Z,33.40
2019-03-25T19:32:07.338Z,34.00
2019-03-25T19:34:37.808Z,36.00
2019-03-25T19:37:08.127Z,36.20
2019-03-25T19:39:38.269Z,35.80
2019-03-25T19:42:09.549Z,36.60
2019-03-25T19:44:39.766Z,34.20
2019-03-25T19:47:10.388Z,36.20
2019-03-25T19:49:40.761Z,34.80
2019-03-25T19:52:10.971Z,34.80
2019-03-25T19:54:41.556Z,34.60
2019-03-25T19:57:12.905Z,36.20
2019-03-25T19:59:43.242Z,35.80
2019-03-25T20:02:19.073Z,33.80
2019-03-25T20:04:46.082Z,35.80
2019-03-25T20:07:16.515Z,37.00
2019-03-25T20:09:47.139Z,35.40
2019-03-25T20:12:17.516Z,37.40
2019-03-25T20:14:48.177Z,37.00
2019-03-25T20:17:19.010Z,36.60
2019-03-25T20:19:49.665Z,37.40
2019-03-25T20:22:20.166Z,38.40
2019-03-25T20:24:50.692Z,37.60
2019-03-25T20:27:21.237Z,36.60
2019-03-25T20:29:51.518Z,36.40
2019-03-25T20:32:31.206Z,38.00
2019-03-25T20:34:54.984Z,36.80
2019-03-25T20:37:25.453Z,38.00
2019-03-25T20:39:55.851Z,38.80
2019-03-25T20:42:26.327Z,36.20
2019-03-25T20:44:57.082Z,36.80
2019-03-25T20:47:27.617Z,35.00
2019-03-25T20:49:58.153Z,36.60
2019-03-25T20:52:28.934Z,36.00
2019-03-25T20:54:59.602Z,37.40
2019-03-25T20:57:30.190Z,36.40
2019-03-25T21:00:00.503Z,36.40
2019-03-25T21:02:30.917Z,35.60
2019-03-25T21:05:01.240Z,34.60
2019-03-25T21:07:32.715Z,37.20
2019-03-25T21:10:03.523Z,36.40
2019-03-25T21:12:38.423Z,35.00
2019-03-25T21:15:08.216Z,32.40
2019-03-25T21:17:38.877Z,34.60
2019-03-25T21:20:10.472Z,34.80
2019-03-25T21:22:41.392Z,34.80
2019-03-25T21:25:12.155Z,34.00
2019-03-25T21:27:42.601Z,34.20
2019-03-25T21:30:13.189Z,37.00
2019-03-25T21:32:43.616Z,32.40
2019-03-25T21:35:14.175Z,35.40
2019-03-25T21:37:44.733Z,36.20
2019-03-25T21:40:15.448Z,35.60
2019-03-25T21:42:46.006Z,36.40
2019-03-25T21:45:16.475Z,36.20
2019-03-25T21:47:47.052Z,36.40
2019-03-25T21:50:17.562Z,39.00
2019-03-25T21:52:48.108Z,37.40
2019-03-25T21:55:18.847Z,38.00
2019-03-25T21:57:49.322Z,38.80
2019-03-25T22:00:19.899Z,35.20
2019-03-25T22:02:50.181Z,38.80
2019-03-25T22:05:20.901Z,38.60
2019-03-25T22:07:51.238Z,40.40
2019-03-25T22:10:22.028Z,39.00
2019-03-25T22:12:52.503Z,39.00
2019-03-25T22:15:23.285Z,39.20
2019-03-25T22:17:54.140Z,39.00
2019-03-25T22:20:24.546Z,41.40
2019-03-25T22:22:54.814Z,40.00
2019-03-25T22:25:25.419Z,42.80
2019-03-25T22:27:55.529Z,40.60
2019-03-25T22:30:26.364Z,39.00
2019-03-25T22:32:56.709Z,43.20
2019-03-25T22:35:27.012Z,39.40
2019-03-25T22:37:57.380Z,44.00
2019-03-25T22:40:28.113Z,41.60
2019-03-25T22:42:58.359Z,41.00
2019-03-25T22:45:29.568Z,42.40
2019-03-25T22:48:00.058Z,41.20
2019-03-25T22:50:31.379Z,40.00
2019-03-25T22:53:01.868Z,45.60
2019-03-25T22:55:32.491Z,44.80
2019-03-25T22:58:02.909Z,44.00
2019-03-25T23:00:41.199Z,41.80
2019-03-25T23:03:12.086Z,42.40
2019-03-25T23:05:42.619Z,41.20
2019-03-25T23:08:13.258Z,42.40
2019-03-25T23:10:43.993Z,43.40
2019-03-25T23:13:14.610Z,40.20
2019-03-25T23:15:45.558Z,41.20
2019-03-25T23:18:15.920Z,39.60
2019-03-25T23:20:46.536Z,41.20
2019-03-25T23:23:16.840Z,43.60
2019-03-25T23:25:47.691Z,42.80
2019-03-25T23:28:18.006Z,37.80
2019-03-25T23:30:48.746Z,38.80
2019-03-25T23:33:19.078Z,39.20
2019-03-25T23:35:49.872Z,38.60
2019-03-25T23:38:20.303Z,40.00
2019-03-25T23:40:51.789Z,42.20
2019-03-25T23:43:22.371Z,43.00
2019-03-25T23:45:53.028Z,44.40
2019-03-25T23:48:23.639Z,40.80
2019-03-25T23:50:55.101Z,42.20
2019-03-25T23:53:25.812Z,42.00
2019-03-25T23:55:56.095Z,41.80
2019-03-25T23:58:26.456Z,37.60
